Time;durP1;ratioP1;P1;durP2;ratioP2;P2;SDS_P1;SDS_P2;PMS_P1;PMS_P2;Temp;Humidity;BMP_temperature;BMP_pressure;BME280_temperature;BME280_humidity;BME280_pressure;Samples;Min_cycle;Max_cycle;Signal;HPM_P1;HPM_P2
2022/05/23 00:01:49;;;;;;;4.83;3.87;;;16.30;99.90;;;;;;5022568;28;20468;-61
2022/05/23 00:04:22;;;;;;;6.13;4.40;;;16.50;99.90;;;;;;5022571;28;20521;-61
2022/05/23 00:06:51;;;;;;;6.43;3.70;;;16.60;99.90;;;;;;5021887;28;20494;-61
2022/05/23 00:09:18;;;;;;;6.20;4.93;;;16.70;99.90;;;;;;5022161;28;20817;-60
2022/05/23 00:11:46;;;;;;;4.70;4.20;;;16.70;99.90;;;;;;5021646;28;20824;-61
2022/05/23 00:14:13;;;;;;;7.63;4.80;;;16.70;99.90;;;;;;5021583;28;20530;-60
2022/05/23 00:16:45;;;;;;;8.00;5.43;;;16.70;99.90;;;;;;5021524;28;20772;-61
2022/05/23 00:19:13;;;;;;;5.93;4.83;;;16.60;99.90;;;;;;5022098;28;20872;-61
2022/05/23 00:21:45;;;;;;;5.70;5.20;;;16.50;99.90;;;;;;5021410;28;20464;-60
2022/05/23 00:24:14;;;;;;;5.07;4.47;;;16.40;99.90;;;;;;5020866;28;20484;-61
2022/05/23 00:26:47;;;;;;;5.60;4.80;;;16.30;99.90;;;;;;5021239;28;20460;-61
2022/05/23 00:29:14;;;;;;;5.57;4.77;;;16.40;99.90;;;;;;5021300;28;20583;-61
2022/05/23 00:35:17;;;;;;;5.13;4.73;;;16.30;99.90;;;;;;5020878;28;20463;-61
2022/05/23 00:37:16;;;;;;;5.10;4.60;;;16.30;99.90;;;;;;5021594;28;20439;-61
2022/05/23 00:39:44;;;;;;;6.17;4.67;;;16.30;99.90;;;;;;5020893;28;20522;-61
2022/05/23 00:45:10;;;;;;;8.17;4.17;;;16.30;99.90;;;;;;5019930;28;20463;-60
2022/05/23 00:47:37;;;;;;;6.97;4.70;;;16.30;99.90;;;;;;5020722;28;20498;-61
2022/05/23 00:50:04;;;;;;;5.77;4.87;;;16.30;99.90;;;;;;5020537;28;20492;-61
2022/05/23 00:52:36;;;;;;;4.80;4.40;;;16.30;99.90;;;;;;5021027;28;20533;-60
2022/05/23 00:55:11;;;;;;;5.57;4.20;;;16.30;99.90;;;;;;5021090;28;20471;-61
2022/05/23 00:57:44;;;;;;;7.63;4.60;;;16.40;99.90;;;;;;5021940;28;20866;-60
2022/05/23 01:00:11;;;;;;;4.50;4.10;;;16.30;99.90;;;;;;5021442;28;20952;-61
2022/05/23 01:02:40;;;;;;;4.07;3.77;;;16.30;99.90;;;;;;5021157;28;20498;-61
2022/05/23 01:05:09;;;;;;;6.07;4.13;;;16.40;99.90;;;;;;5020371;28;20460;-60
2022/05/23 01:07:36;;;;;;;5.00;4.23;;;16.50;99.90;;;;;;5020795;28;20468;-61
2022/05/23 01:10:06;;;;;;;5.43;4.10;;;16.60;99.90;;;;;;5021122;28;20766;-60
2022/05/23 01:12:33;;;;;;;5.17;4.67;;;16.60;99.90;;;;;;5020891;28;20468;-61
2022/05/23 01:15:03;;;;;;;4.77;4.13;;;16.60;99.90;;;;;;5020898;28;20495;-61
2022/05/23 01:17:32;;;;;;;5.27;4.73;;;16.60;99.90;;;;;;5019244;28;20472;-61
2022/05/23 01:20:00;;;;;;;7.10;4.10;;;16.60;99.90;;;;;;5020272;28;20522;-61
2022/05/23 01:22:43;;;;;;;5.17;4.70;;;16.60;99.90;;;;;;5021635;28;20551;-61
2022/05/23 01:25:18;;;;;;;10.03;4.53;;;16.60;99.90;;;;;;5021024;28;20522;-60
2022/05/23 01:27:47;;;;;;;5.00;4.20;;;16.60;99.90;;;;;;5020957;28;20464;-61
2022/05/23 01:30:15;;;;;;;5.20;4.70;;;16.60;99.90;;;;;;5020856;28;20520;-61
2022/05/23 01:32:42;;;;;;;5.47;4.90;;;16.60;99.90;;;;;;5002053;28;20510;-61
2022/05/23 01:35:11;;;;;;;5.67;4.27;;;16.60;99.90;;;;;;5001771;28;20484;-61
2022/05/23 01:37:40;;;;;;;5.30;4.10;;;16.70;99.90;;;;;;5010770;28;20487;-61
2022/05/23 01:40:12;;;;;;;5.23;4.37;;;16.70;99.90;;;;;;5020845;28;20460;-61
2022/05/23 01:42:43;;;;;;;6.20;4.40;;;16.70;99.90;;;;;;5020201;28;20464;-61
2022/05/23 01:45:15;;;;;;;6.20;5.10;;;16.70;99.90;;;;;;5020774;28;20468;-61
2022/05/23 01:47:42;;;;;;;4.73;4.37;;;16.70;99.90;;;;;;5020005;28;20483;-61
2022/05/23 01:50:12;;;;;;;4.30;3.90;;;16.80;99.90;;;;;;5020227;28;20491;-60
2022/05/23 01:52:40;;;;;;;4.83;4.27;;;16.70;99.90;;;;;;5020578;28;20468;-61
2022/05/23 01:55:08;;;;;;;6.17;4.80;;;16.80;99.90;;;;;;5019465;28;20463;-61
2022/05/23 01:57:35;;;;;;;5.00;4.60;;;16.80;99.90;;;;;;5020077;28;20531;-61
2022/05/23 02:02:51;;;;;;;7.67;4.20;;;16.80;99.90;;;;;;5019333;28;20451;-61
2022/05/23 02:05:19;;;;;;;4.93;4.43;;;16.80;99.90;;;;;;5019859;28;20913;-61
2022/05/23 02:07:46;;;;;;;5.83;4.30;;;16.80;99.90;;;;;;5017879;28;20526;-61
2022/05/23 02:10:16;;;;;;;4.00;3.67;;;16.80;99.90;;;;;;5017782;28;20498;-61
2022/05/23 02:12:43;;;;;;;5.20;4.10;;;16.90;99.90;;;;;;5018042;28;20515;-61
2022/05/23 02:15:11;;;;;;;6.63;4.50;;;16.90;99.90;;;;;;5018496;28;20464;-61
2022/05/23 02:17:39;;;;;;;5.27;4.10;;;16.90;99.90;;;;;;5017487;28;20467;-61
2022/05/23 02:20:10;;;;;;;4.47;4.07;;;16.90;99.90;;;;;;5017346;28;20554;-62
2022/05/23 02:22:37;;;;;;;4.77;4.17;;;16.90;99.90;;;;;;5018132;28;20470;-62
2022/05/23 02:25:06;;;;;;;5.27;4.40;;;16.90;99.90;;;;;;5017814;28;20491;-61
2022/05/23 02:27:35;;;;;;;4.97;4.50;;;16.90;99.90;;;;;;5018058;28;20464;-61
2022/05/23 02:30:05;;;;;;;6.33;4.30;;;16.90;99.90;;;;;;5017179;28;20602;-60
2022/05/23 02:32:32;;;;;;;4.90;4.20;;;16.90;99.90;;;;;;5018426;28;20431;-60
2022/05/23 02:34:59;;;;;;;4.90;3.70;;;16.90;99.90;;;;;;5018039;28;20464;-61
2022/05/23 02:37:28;;;;;;;4.80;4.40;;;17.00;99.90;;;;;;5017926;28;20464;-60
2022/05/23 02:39:54;;;;;;;5.13;3.97;;;17.00;99.90;;;;;;5017254;28;20751;-61
2022/05/23 02:42:21;;;;;;;5.27;4.27;;;17.00;99.90;;;;;;5018901;28;20587;-62
2022/05/23 02:44:48;;;;;;;4.70;4.30;;;17.00;99.90;;;;;;5019633;28;20472;-61
2022/05/23 02:47:18;;;;;;;5.77;3.77;;;17.00;99.90;;;;;;5017940;28;20468;-62
2022/05/23 02:49:45;;;;;;;5.97;4.60;;;17.00;99.90;;;;;;5017289;28;20496;-61
2022/05/23 02:52:12;;;;;;;4.23;3.90;;;17.00;99.90;;;;;;5017366;28;20467;-61
2022/05/23 02:54:41;;;;;;;4.10;3.80;;;17.00;99.90;;;;;;5017262;28;20464;-61
2022/05/23 02:57:10;;;;;;;6.27;3.93;;;17.10;99.90;;;;;;5018086;28;20486;-61
2022/05/23 02:59:38;;;;;;;4.43;4.03;;;17.10;99.90;;;;;;5017131;28;20464;-61
2022/05/23 03:04:50;;;;;;;4.70;4.17;;;17.10;99.90;;;;;;5017025;28;20522;-61
2022/05/23 03:07:17;;;;;;;5.10;4.70;;;17.10;99.90;;;;;;5017659;28;20518;-61
2022/05/23 03:09:46;;;;;;;4.37;3.60;;;17.10;99.90;;;;;;5017003;28;20468;-61
2022/05/23 03:12:13;;;;;;;5.47;4.10;;;17.00;99.90;;;;;;5017402;28;20531;-61
2022/05/23 03:14:40;;;;;;;4.30;3.90;;;17.10;99.90;;;;;;5016809;28;20464;-62
2022/05/23 03:17:11;;;;;;;3.53;3.23;;;17.10;99.90;;;;;;5016879;28;20471;-61
2022/05/23 03:19:39;;;;;;;7.17;3.83;;;17.10;99.90;;;;;;5016764;28;20492;-61
2022/05/23 03:27:37;;;;;;;4.40;3.90;;;17.10;99.90;;;;;;5018584;28;20530;-61
2022/05/23 03:30:05;;;;;;;6.83;3.53;;;17.00;99.90;;;;;;5023248;28;20574;-61
2022/05/23 03:32:35;;;;;;;4.40;3.70;;;17.00;99.90;;;;;;5023808;28;20443;-61
2022/05/23 03:35:02;;;;;;;5.70;3.70;;;17.00;99.90;;;;;;5023658;28;20745;-62
2022/05/23 03:37:30;;;;;;;5.37;4.30;;;17.00;99.90;;;;;;5022889;28;20826;-61
2022/05/23 03:40:00;;;;;;;4.70;3.90;;;17.10;99.90;;;;;;5023427;28;20467;-61
2022/05/23 03:42:27;;;;;;;7.83;3.03;;;17.00;99.90;;;;;;5023672;28;20522;-61
2022/05/23 03:44:54;;;;;;;5.67;3.33;;;17.10;99.90;;;;;;5023704;28;20533;-62
2022/05/23 03:47:21;;;;;;;4.30;3.37;;;17.10;99.90;;;;;;5022947;28;20438;-61
2022/05/23 03:49:53;;;;;;;3.43;3.07;;;17.10;99.90;;;;;;5024021;28;20459;-61
2022/05/23 03:52:23;;;;;;;4.37;3.73;;;17.10;99.90;;;;;;5023367;28;20470;-60
2022/05/23 03:54:50;;;;;;;6.00;3.87;;;17.20;99.90;;;;;;5023781;28;20821;-61
2022/05/23 03:57:19;;;;;;;4.30;3.90;;;17.20;99.90;;;;;;5022431;28;20464;-62
2022/05/23 03:59:48;;;;;;;4.20;3.80;;;17.20;99.90;;;;;;5022935;28;20521;-61
2022/05/23 04:02:15;;;;;;;6.40;3.73;;;17.20;99.90;;;;;;5021732;28;20517;-61
2022/05/23 04:04:42;;;;;;;5.50;3.40;;;17.20;99.90;;;;;;5023467;28;20459;-61
2022/05/23 04:07:10;;;;;;;6.90;3.77;;;17.20;99.90;;;;;;5022272;28;20456;-62
2022/05/23 04:09:37;;;;;;;3.50;3.20;;;17.20;99.90;;;;;;5023401;28;20502;-62
2022/05/23 04:12:04;;;;;;;3.87;3.37;;;17.20;99.90;;;;;;5022828;28;20487;-61
2022/05/23 04:14:33;;;;;;;4.10;3.70;;;17.20;99.90;;;;;;5023683;28;20493;-62
2022/05/23 04:17:04;;;;;;;3.50;3.20;;;17.20;99.90;;;;;;5023539;28;20467;-62
2022/05/23 04:19:32;;;;;;;4.80;3.40;;;17.10;99.90;;;;;;5022288;28;20446;-62
2022/05/23 04:22:01;;;;;;;3.80;3.40;;;17.20;99.90;;;;;;5023106;28;20459;-62
2022/05/23 04:24:29;;;;;;;5.97;4.20;;;17.20;99.90;;;;;;5022844;28;20883;-62
2022/05/23 04:26:57;;;;;;;4.67;4.17;;;17.20;99.90;;;;;;5023466;28;20529;-61
2022/05/23 04:29:25;;;;;;;5.50;4.37;;;17.10;99.90;;;;;;5022470;28;20526;-62
2022/05/23 04:31:53;;;;;;;4.83;4.43;;;17.10;99.90;;;;;;5023006;28;20495;-61
2022/05/23 04:37:05;;;;;;;4.70;4.10;;;17.10;99.90;;;;;;5019705;28;20431;-62
2022/05/23 04:39:32;;;;;;;4.17;3.77;;;17.10;99.90;;;;;;5016503;28;20480;-61
2022/05/23 04:42:00;;;;;;;4.83;3.73;;;17.20;99.90;;;;;;5017640;28;20452;-61
2022/05/23 04:44:33;;;;;;;4.30;4.00;;;17.30;99.90;;;;;;5017096;28;20559;-62
2022/05/23 04:49:50;;;;;;;5.20;3.77;;;17.40;99.90;;;;;;5015263;28;20418;-61
2022/05/23 04:52:22;;;;;;;4.77;4.10;;;17.40;99.90;;;;;;5017483;28;20582;-61
2022/05/23 04:54:50;;;;;;;3.90;3.60;;;17.50;99.90;;;;;;5017769;28;20831;-61
2022/05/23 04:57:18;;;;;;;4.93;3.40;;;17.60;99.90;;;;;;5012420;28;21016;-62
2022/05/23 04:59:45;;;;;;;5.80;3.73;;;17.60;99.90;;;;;;5010870;28;20550;-62
2022/05/23 05:02:14;;;;;;;4.33;3.93;;;17.70;99.90;;;;;;5014563;28;20905;-62
2022/05/23 05:04:41;;;;;;;9.20;4.23;;;17.80;99.90;;;;;;5012914;28;20772;-62
2022/05/23 05:07:09;;;;;;;4.37;3.90;;;17.90;99.90;;;;;;5015324;28;20460;-61
2022/05/23 05:09:36;;;;;;;4.40;3.80;;;18.00;99.90;;;;;;5015269;28;20889;-62
2022/05/23 05:12:04;;;;;;;7.07;4.30;;;18.00;99.90;;;;;;5015225;28;20996;-61
2022/05/23 05:14:34;;;;;;;5.00;3.60;;;18.00;99.90;;;;;;5017323;28;20468;-62
2022/05/23 05:17:02;;;;;;;5.93;3.50;;;18.00;99.90;;;;;;5019562;28;20529;-62
2022/05/23 05:19:30;;;;;;;3.87;3.47;;;18.10;99.90;;;;;;5018007;28;20476;-62
2022/05/23 05:21:57;;;;;;;6.73;4.50;;;18.20;99.90;;;;;;5019363;28;20530;-62
2022/05/23 05:24:24;;;;;;;6.30;5.00;;;18.40;99.90;;;;;;5016987;28;20865;-63
2022/05/23 05:26:51;;;;;;;4.37;4.00;;;18.40;99.90;;;;;;5017360;28;20889;-62
2022/05/23 05:29:21;;;;;;;3.87;3.53;;;18.50;99.90;;;;;;5016510;28;20923;-62
2022/05/23 05:31:54;;;;;;;3.90;3.50;;;18.60;99.90;;;;;;5015288;28;20966;-64
2022/05/23 05:34:28;;;;;;;7.73;3.63;;;18.70;99.90;;;;;;5016324;28;20712;-63
2022/05/23 05:37:02;;;;;;;5.30;3.80;;;18.80;99.90;;;;;;5016182;28;20530;-64
2022/05/23 05:39:32;;;;;;;4.80;3.40;;;18.90;99.90;;;;;;5015219;28;20884;-63
2022/05/23 05:42:04;;;;;;;3.90;3.33;;;19.00;99.90;;;;;;5017812;28;20479;-64
2022/05/23 05:44:35;;;;;;;7.03;4.57;;;18.90;99.90;;;;;;5016733;28;20929;-64
2022/05/23 05:47:07;;;;;;;4.10;3.70;;;18.80;99.90;;;;;;5016896;28;20471;-64
2022/05/23 05:49:38;;;;;;;4.03;3.73;;;18.90;99.90;;;;;;5013830;28;20456;-64
2022/05/23 05:52:10;;;;;;;4.13;3.73;;;18.90;99.90;;;;;;5012203;28;20549;-64
2022/05/23 05:54:39;;;;;;;5.33;4.60;;;19.00;99.90;;;;;;5014293;28;20483;-65
2022/05/23 05:57:08;;;;;;;5.53;4.03;;;19.10;99.90;;;;;;5017255;28;20499;-65
2022/05/23 05:59:39;;;;;;;4.47;3.70;;;19.10;99.90;;;;;;5014879;28;20464;-64
2022/05/23 06:02:07;;;;;;;4.53;3.77;;;19.10;99.90;;;;;;5015492;28;20521;-65
2022/05/23 06:04:35;;;;;;;5.87;5.27;;;19.30;99.90;;;;;;5012305;28;20467;-64
2022/05/23 06:12:34;;;;;;;3.97;3.60;;;19.20;99.90;;;;;;5016905;28;20503;-64
2022/05/23 06:15:01;;;;;;;5.63;4.70;;;19.20;99.90;;;;;;5016901;28;20464;-64
2022/05/23 06:17:28;;;;;;;4.73;4.33;;;19.20;99.90;;;;;;5017792;28;20523;-65
2022/05/23 06:19:55;;;;;;;7.63;3.97;;;19.30;99.90;;;;;;5016951;28;20903;-64
2022/05/23 06:22:23;;;;;;;6.03;4.50;;;19.30;99.90;;;;;;5017326;28;20916;-64
2022/05/23 06:24:54;;;;;;;5.80;4.50;;;19.30;99.90;;;;;;5016566;28;20542;-64
2022/05/23 06:27:21;;;;;;;5.00;4.13;;;19.20;99.90;;;;;;5017024;28;20467;-64
2022/05/23 06:29:48;;;;;;;7.33;3.90;;;19.20;99.90;;;;;;5016636;28;20484;-64
2022/05/23 06:32:16;;;;;;;5.03;3.87;;;19.20;99.90;;;;;;5015391;28;20532;-64
2022/05/23 06:34:46;;;;;;;4.33;3.73;;;19.30;99.90;;;;;;5012570;28;20483;-64
2022/05/23 06:37:13;;;;;;;4.80;3.70;;;19.30;99.90;;;;;;5014278;28;20566;-64
2022/05/23 06:39:45;;;;;;;4.17;3.77;;;19.40;99.90;;;;;;5016173;28;20527;-63
2022/05/23 06:42:14;;;;;;;5.70;4.03;;;19.40;99.90;;;;;;5015943;28;20788;-63
2022/05/23 06:44:41;;;;;;;4.10;3.80;;;19.40;99.90;;;;;;5016431;28;20471;-64
2022/05/23 06:47:08;;;;;;;4.87;4.33;;;19.60;99.90;;;;;;5016472;28;20463;-63
2022/05/23 06:49:40;;;;;;;4.80;4.30;;;19.70;99.90;;;;;;5018293;28;20463;-63
2022/05/23 06:52:07;;;;;;;3.97;3.67;;;19.90;99.90;;;;;;5017722;28;20522;-64
2022/05/23 06:54:34;;;;;;;6.47;3.80;;;20.10;99.90;;;;;;5013897;28;20491;-64
2022/05/23 06:57:02;;;;;;;5.30;4.80;;;20.20;99.90;;;;;;5018633;28;20463;-63
2022/05/23 06:59:33;;;;;;;4.20;3.73;;;20.20;99.90;;;;;;5018131;28;20503;-63
2022/05/23 07:02:03;;;;;;;4.37;4.07;;;20.40;99.90;;;;;;5016029;28;20451;-63
2022/05/23 07:12:19;;;;;;;4.30;3.77;;;20.60;99.90;;;;;;5018508;28;20801;-63
2022/05/23 07:12:48;;;;;;;4.43;3.60;;;20.90;99.90;;;;;;5017574;28;20495;-63
2022/05/23 07:15:17;;;;;;;4.43;4.07;;;21.10;99.90;;;;;;5016209;28;20472;-64
2022/05/23 07:17:44;;;;;;;5.63;4.03;;;21.20;99.90;;;;;;5016735;28;20518;-64
2022/05/23 07:20:13;;;;;;;4.27;3.53;;;21.20;99.90;;;;;;5015930;28;20464;-63
2022/05/23 07:22:40;;;;;;;4.27;3.87;;;21.20;99.90;;;;;;5014496;28;20546;-65
2022/05/23 07:25:10;;;;;;;4.43;4.03;;;20.80;99.90;;;;;;5015146;28;20496;-64
2022/05/23 07:27:37;;;;;;;7.20;4.47;;;20.80;99.90;;;;;;5014646;28;20959;-63
2022/05/23 07:30:08;;;;;;;5.03;4.53;;;20.80;99.90;;;;;;5016087;28;20757;-65
2022/05/23 07:32:37;;;;;;;4.70;4.03;;;21.00;99.90;;;;;;5014628;28;20590;-64
2022/05/23 07:35:05;;;;;;;5.00;4.30;;;20.90;99.90;;;;;;5012640;28;20818;-65
2022/05/23 07:37:32;;;;;;;6.00;4.40;;;20.70;99.90;;;;;;5032971;28;20872;-63
2022/05/23 07:40:04;;;;;;;5.23;3.90;;;20.70;99.90;;;;;;5028415;28;20439;-64
2022/05/23 07:42:31;;;;;;;5.10;4.33;;;20.60;99.90;;;;;;5015349;28;20455;-64
2022/05/23 07:45:01;;;;;;;4.40;4.00;;;20.50;99.90;;;;;;5015082;28;20499;-64
2022/05/23 07:47:28;;;;;;;5.50;4.20;;;20.60;99.90;;;;;;5015811;28;20460;-65
2022/05/23 07:49:56;;;;;;;5.37;4.87;;;20.70;99.90;;;;;;5013728;28;20551;-65
2022/05/23 07:52:23;;;;;;;4.23;3.93;;;20.60;99.90;;;;;;5017595;28;20492;-63
2022/05/23 08:00:34;;;;;;;4.60;4.00;;;20.50;99.90;;;;;;5015535;28;20439;-64
2022/05/23 08:03:04;;;;;;;5.57;4.77;;;20.60;99.90;;;;;;5014548;28;20452;-63
2022/05/23 08:05:33;;;;;;;5.50;3.97;;;20.70;99.90;;;;;;5011938;28;20487;-62
2022/05/23 08:08:00;;;;;;;7.67;4.67;;;20.80;99.90;;;;;;5015741;28;20459;-64
2022/05/23 08:10:30;;;;;;;5.90;4.60;;;21.10;99.90;;;;;;5015655;28;20522;-64
2022/05/23 08:13:02;;;;;;;6.23;4.37;;;21.50;99.90;;;;;;5016086;28;20948;-64
2022/05/23 08:15:31;;;;;;;5.00;4.37;;;21.80;99.90;;;;;;5013566;28;20744;-64
2022/05/23 08:17:59;;;;;;;7.57;4.43;;;21.90;99.90;;;;;;5017985;28;20780;-63
2022/05/23 08:20:26;;;;;;;4.63;4.23;;;22.00;99.90;;;;;;5020565;28;20561;-65
2022/05/23 08:22:59;;;;;;;9.50;4.57;;;22.00;99.90;;;;;;5016087;28;20824;-64
2022/05/23 08:25:26;;;;;;;5.10;3.67;;;22.10;99.90;;;;;;5018441;28;20896;-66
2022/05/23 08:27:57;;;;;;;4.20;3.90;;;22.00;99.90;;;;;;5015063;28;20468;-66
2022/05/23 08:30:27;;;;;;;4.80;4.40;;;21.90;99.90;;;;;;5019821;28;20859;-65
2022/05/23 08:32:59;;;;;;;6.10;4.27;;;21.90;99.90;;;;;;5016336;28;20504;-65
2022/05/23 08:35:27;;;;;;;4.03;3.70;;;21.90;99.90;;;;;;5018593;28;20920;-63
2022/05/23 08:38:02;;;;;;;4.17;3.87;;;21.90;99.90;;;;;;5017631;28;20538;-62
2022/05/23 08:40:41;;;;;;;5.53;4.20;;;22.00;99.90;;;;;;5018322;28;20538;-63
2022/05/23 08:43:10;;;;;;;4.10;3.70;;;22.20;99.90;;;;;;5020492;28;20472;-63
2022/05/23 08:45:44;;;;;;;5.47;5.07;;;22.50;99.90;;;;;;5016668;28;20777;-65
2022/05/23 08:48:27;;;;;;;6.33;4.23;;;22.90;99.90;;;;;;5017530;28;20448;-65
2022/05/23 08:50:59;;;;;;;4.57;3.80;;;23.60;99.90;;;;;;5017770;28;20464;-65
2022/05/23 08:53:36;;;;;;;9.30;4.83;;;24.30;99.90;;;;;;5017004;28;20491;-66
2022/05/23 08:56:12;;;;;;;5.43;4.37;;;24.10;99.90;;;;;;5017275;28;20468;-66
2022/05/23 08:58:46;;;;;;;4.33;3.93;;;24.30;99.90;;;;;;5015438;28;20927;-66
2022/05/23 09:01:18;;;;;;;6.60;5.27;;;24.30;99.90;;;;;;5038454;28;20486;-65
2022/05/23 09:03:54;;;;;;;4.70;4.20;;;24.30;99.90;;;;;;5031143;28;20467;-65
2022/05/23 09:06:27;;;;;;;6.37;4.30;;;23.90;99.90;;;;;;5035440;28;20430;-64
2022/05/23 09:08:57;;;;;;;5.43;4.63;;;23.10;99.90;;;;;;5018279;28;20548;-64
2022/05/23 09:11:31;;;;;;;5.03;4.50;;;23.10;99.90;;;;;;5024536;28;20459;-66
2022/05/23 09:13:59;;;;;;;7.60;4.60;;;23.20;99.90;;;;;;5028431;28;20479;-64
2022/05/23 09:16:35;;;;;;;4.83;4.07;;;23.00;99.90;;;;;;5024291;28;20561;-63
2022/05/23 09:19:06;;;;;;;6.43;4.80;;;22.60;99.90;;;;;;5037861;28;20490;-64
2022/05/23 09:24:19;;;;;;;6.77;4.00;;;22.60;99.90;;;;;;5015180;28;20556;-64
2022/05/23 09:26:48;;;;;;;5.27;4.50;;;23.10;99.90;;;;;;5016792;28;20558;-65
2022/05/23 09:29:18;;;;;;;4.53;4.00;;;23.50;99.90;;;;;;5018156;28;20464;-66
2022/05/23 09:31:50;;;;;;;5.70;5.00;;;23.50;99.90;;;;;;5018750;28;20609;-64
2022/05/23 09:34:34;;;;;;;4.47;4.07;;;23.70;99.90;;;;;;5015722;28;20911;-64
2022/05/23 09:37:02;;;;;;;5.70;4.70;;;23.60;99.90;;;;;;5015957;28;20472;-64
2022/05/23 09:39:34;;;;;;;6.30;4.23;;;23.70;99.90;;;;;;5015373;28;20928;-65
2022/05/23 09:47:45;;;;;;;4.83;4.37;;;23.40;99.90;;;;;;5016311;28;20432;-64
2022/05/23 09:50:30;;;;;;;4.87;4.47;;;23.50;99.90;;;;;;5015963;28;20916;-64
2022/05/23 09:52:59;;;;;;;6.43;4.30;;;23.80;99.90;;;;;;5017444;28;20773;-65
2022/05/23 09:55:31;;;;;;;3.63;3.43;;;23.90;99.90;;;;;;5016634;28;20472;-64
2022/05/23 09:58:04;;;;;;;4.53;4.07;;;24.00;99.90;;;;;;5018027;28;20464;-65
2022/05/23 10:00:39;;;;;;;4.63;3.87;;;24.20;99.90;;;;;;5015204;28;20464;-64
2022/05/23 10:03:13;;;;;;;4.80;3.57;;;24.50;99.90;;;;;;5017875;28;20463;-66
2022/05/23 10:05:43;;;;;;;4.03;3.63;;;25.00;99.90;;;;;;5013708;28;20502;-65
2022/05/23 10:08:29;;;;;;;3.93;3.53;;;25.50;99.90;;;;;;5016820;28;20787;-65
2022/05/23 10:11:05;;;;;;;4.30;3.90;;;26.30;99.90;;;;;;5018275;28;20488;-66
2022/05/23 10:13:34;;;;;;;4.90;4.00;;;27.00;99.90;;;;;;5017439;28;20495;-65
2022/05/23 10:16:12;;;;;;;3.50;3.10;;;27.30;99.90;;;;;;5014636;28;20526;-65
2022/05/23 10:18:52;;;;;;;9.30;3.40;;;27.80;99.90;;;;;;5023754;28;20906;-65
2022/05/23 10:21:27;;;;;;;4.87;3.70;;;28.10;99.90;;;;;;5036492;28;20872;-64
2022/05/23 10:24:05;;;;;;;3.87;2.93;;;27.90;99.90;;;;;;5037210;28;20486;-65
2022/05/23 10:26:37;;;;;;;3.17;2.87;;;27.80;99.90;;;;;;5037496;28;20903;-64
2022/05/23 10:29:10;;;;;;;3.27;2.97;;;27.80;99.90;;;;;;5028684;28;20527;-64
2022/05/23 10:31:41;;;;;;;4.23;3.13;;;27.40;99.90;;;;;;5037319;28;20463;-64
2022/05/23 10:34:20;;;;;;;5.70;3.43;;;26.50;99.90;;;;;;5026213;28;20430;-64
2022/05/23 10:36:53;;;;;;;4.93;3.70;;;26.30;99.90;;;;;;5025088;28;20548;-63
2022/05/23 10:42:16;;;;;;;3.60;3.30;;;26.00;99.90;;;;;;5037192;28;20433;-64
2022/05/23 10:45:03;;;;;;;5.20;3.53;;;26.70;99.90;;;;;;5036332;28;20556;-63
2022/05/23 10:47:54;;;;;;;3.60;3.30;;;27.30;99.90;;;;;;5032059;28;20442;-62
2022/05/23 10:50:24;;;;;;;5.73;4.27;;;27.80;99.90;;;;;;5018200;28;20463;-64
2022/05/23 10:53:02;;;;;;;5.47;3.37;;;28.00;99.90;;;;;;5020868;28;20496;-62
2022/05/23 10:55:34;;;;;;;3.70;3.30;;;27.70;99.90;;;;;;5007806;28;20472;-64
2022/05/23 10:58:13;;;;;;;4.10;3.80;;;27.20;99.90;;;;;;5008550;28;20496;-63
2022/05/23 11:00:53;;;;;;;6.43;3.13;;;26.90;99.90;;;;;;5017730;28;20540;-66
2022/05/23 11:03:26;;;;;;;4.73;3.10;;;27.40;99.90;;;;;;5011306;28;20935;-65
2022/05/23 11:06:07;;;;;;;7.03;3.60;;;27.90;99.90;;;;;;5035983;28;20521;-65
2022/05/23 11:08:58;;;;;;;3.40;3.10;;;28.20;99.90;;;;;;5029630;28;20526;-65
2022/05/23 11:11:41;;;;;;;6.80;3.37;;;28.10;99.90;;;;;;5017442;28;20881;-64
2022/05/23 11:14:17;;;;;;;7.43;3.60;;;28.10;99.90;;;;;;5028507;28;20552;-64
2022/05/23 11:16:53;;;;;;;4.77;4.37;;;27.90;99.90;;;;;;5037040;28;20462;-65
2022/05/23 11:19:32;;;;;;;3.63;3.33;;;27.80;99.90;;;;;;5027979;28;20550;-62
2022/05/23 11:22:09;;;;;;;6.90;3.70;;;27.70;99.90;;;;;;5032520;28;20942;-61
2022/05/23 11:24:45;;;;;;;3.93;3.27;;;27.70;99.90;;;;;;5003250;28;20484;-62
2022/05/23 11:36:00;;;;;;;4.00;3.60;;;27.20;99.90;;;;;;5014220;28;20477;-62
2022/05/23 11:38:30;;;;;;;4.40;4.10;;;27.10;99.90;;;;;;5035238;28;20517;-61
2022/05/23 11:41:05;;;;;;;5.87;4.13;;;26.70;99.90;;;;;;5019038;28;20501;-62
2022/05/23 11:43:35;;;;;;;4.30;3.57;;;26.20;99.90;;;;;;5024001;28;20908;-62
2022/05/23 11:46:07;;;;;;;3.90;3.60;;;26.20;99.90;;;;;;5012074;28;20497;-62
2022/05/23 11:49:00;;;;;;;6.70;4.00;;;26.20;99.90;;;;;;5021301;28;20459;-62
2022/05/23 11:51:41;;;;;;;4.70;4.10;;;25.90;99.90;;;;;;5015782;28;20919;-62
2022/05/23 11:54:12;;;;;;;5.03;4.07;;;25.90;99.90;;;;;;5035545;28;20490;-62
2022/05/23 11:57:11;;;;;;;4.97;4.00;;;26.00;99.90;;;;;;5028570;28;20968;-62
2022/05/23 12:00:02;;;;;;;5.40;3.83;;;26.50;99.90;;;;;;5018293;28;20550;-64
2022/05/23 12:02:33;;;;;;;5.50;4.23;;;26.80;99.90;;;;;;5018834;28;20518;-65
2022/05/23 12:05:14;;;;;;;4.80;4.40;;;27.20;99.90;;;;;;5021837;28;20464;-64
2022/05/23 12:08:06;;;;;;;4.30;3.90;;;27.70;99.90;;;;;;5027828;28;20469;-64
2022/05/23 12:10:54;;;;;;;3.60;3.30;;;27.90;99.90;;;;;;5037998;28;20494;-65
2022/05/23 12:13:38;;;;;;;3.87;3.53;;;27.90;99.90;;;;;;5029730;28;20867;-64
2022/05/23 12:16:38;;;;;;;5.30;3.73;;;27.90;99.90;;;;;;5020031;28;20495;-64
2022/05/23 12:19:23;;;;;;;6.40;4.10;;;27.70;99.90;;;;;;5016493;28;20463;-64
2022/05/23 12:21:53;;;;;;;4.50;4.10;;;27.20;99.90;;;;;;5017002;28;20530;-66
2022/05/23 12:24:36;;;;;;;3.53;3.03;;;27.50;99.90;;;;;;5016181;28;20563;-64
2022/05/23 12:27:07;;;;;;;4.67;3.83;;;27.40;99.90;;;;;;5015308;28;20791;-64
2022/05/23 12:29:36;;;;;;;5.67;3.97;;;27.00;99.90;;;;;;5016303;28;20475;-64
2022/05/23 12:32:24;;;;;;;4.87;4.43;;;26.50;99.90;;;;;;5023306;28;20771;-64
2022/05/23 12:35:00;;;;;;;4.30;4.00;;;25.90;99.90;;;;;;5011560;28;20463;-62
2022/05/23 12:37:34;;;;;;;5.67;4.70;;;25.50;99.90;;;;;;5019341;28;20467;-63
2022/05/23 12:40:14;;;;;;;4.27;3.90;;;25.40;99.90;;;;;;5025436;28;20522;-64
2022/05/23 12:42:58;;;;;;;7.40;4.50;;;25.70;99.90;;;;;;5018795;28;20495;-64
2022/05/23 12:46:05;;;;;;;5.00;4.50;;;25.90;99.90;;;;;;5018086;28;20464;-63
2022/05/23 12:48:59;;;;;;;4.33;3.90;;;26.10;99.90;;;;;;4993733;28;20550;-64
2022/05/23 12:51:39;;;;;;;4.83;4.43;;;26.10;99.90;;;;;;5039405;28;20751;-64
2022/05/23 12:54:21;;;;;;;5.43;4.47;;;26.00;99.90;;;;;;5034537;28;20576;-64
2022/05/23 12:57:07;;;;;;;4.70;4.10;;;25.80;99.90;;;;;;5033690;28;20526;-64
2022/05/23 12:59:50;;;;;;;5.00;4.40;;;25.70;99.90;;;;;;5021918;28;20518;-64
2022/05/23 13:02:26;;;;;;;7.17;4.33;;;25.60;99.90;;;;;;5023592;28;20958;-64
2022/05/23 13:05:04;;;;;;;4.80;4.40;;;25.50;99.90;;;;;;5015840;28;20467;-65
2022/05/23 13:07:41;;;;;;;6.50;4.83;;;25.40;99.90;;;;;;5014811;28;20782;-64
2022/05/23 13:10:12;;;;;;;6.30;4.87;;;25.10;99.90;;;;;;5019915;28;20467;-62
2022/05/23 13:12:44;;;;;;;6.77;4.10;;;24.80;99.90;;;;;;5019335;28;20946;-64
2022/05/23 13:15:27;;;;;;;5.90;5.33;;;24.90;99.90;;;;;;5023357;28;20476;-63
2022/05/23 13:22:05;;;;;;;5.03;4.43;;;24.90;99.90;;;;;;5017538;28;20456;-64
2022/05/23 13:23:35;;;;;;;5.30;4.87;;;24.50;99.90;;;;;;5013893;28;21030;-63
2022/05/23 13:26:08;;;;;;;4.93;4.43;;;24.40;99.90;;;;;;5016666;28;20462;-64
2022/05/23 13:28:41;;;;;;;7.43;4.10;;;24.30;99.90;;;;;;5023168;28;20529;-65
2022/05/23 13:31:25;;;;;;;5.40;4.70;;;24.40;99.90;;;;;;5020253;28;20526;-64
2022/05/23 13:33:57;;;;;;;6.10;4.90;;;24.40;99.90;;;;;;5027794;28;20848;-64
2022/05/23 13:36:28;;;;;;;5.13;4.50;;;24.30;99.90;;;;;;5028320;28;20450;-63
2022/05/23 13:39:03;;;;;;;5.97;5.37;;;24.00;99.90;;;;;;5017855;28;20468;-65
2022/05/23 13:41:31;;;;;;;5.80;5.30;;;23.90;99.90;;;;;;5028704;28;20470;-66
2022/05/23 13:43:59;;;;;;;5.70;4.80;;;23.70;99.90;;;;;;5035887;28;20478;-65
2022/05/23 13:46:32;;;;;;;6.13;4.40;;;23.30;99.90;;;;;;5020655;28;20570;-65
2022/05/23 13:49:08;;;;;;;4.67;4.27;;;23.30;99.90;;;;;;5026068;28;20464;-65
2022/05/23 13:51:44;;;;;;;5.73;5.23;;;23.00;99.90;;;;;;5018748;28;20605;-65
2022/05/23 13:54:19;;;;;;;7.20;4.17;;;22.90;99.90;;;;;;5036780;28;22214;-65
2022/05/23 13:56:51;;;;;;;7.03;5.23;;;22.80;99.90;;;;;;5024078;28;20805;-64
2022/05/23 13:59:23;;;;;;;5.13;4.50;;;22.50;99.90;;;;;;5014887;28;20516;-65
2022/05/23 14:01:54;;;;;;;10.70;6.00;;;22.10;99.90;;;;;;5020176;28;20905;-63
2022/05/23 14:04:25;;;;;;;7.00;5.77;;;21.90;99.90;;;;;;5037189;28;20459;-65
2022/05/23 14:07:03;;;;;;;7.07;5.60;;;21.80;99.90;;;;;;5031096;28;20468;-65
2022/05/23 14:09:34;;;;;;;7.17;5.37;;;21.60;99.90;;;;;;5037613;28;20558;-57
2022/05/23 14:12:08;;;;;;;8.73;6.40;;;21.40;1.00;;;;;;5024596;28;20474;-61
2022/05/23 14:14:39;;;;;;;7.00;6.30;;;21.20;1.00;;;;;;5037605;28;20533;-61